Time;durP1;ratioP1;P1;durP2;ratioP2;P2;SDS_P1;SDS_P2;PMS_P1;PMS_P2;Temp;Humidity;BMP_temperature;BMP_pressure;BME280_temperature;BME280_humidity;BME280_pressure;Samples;Min_cycle;Max_cycle;Signal;HPM_P1;HPM_P2
2023/06/14 00:01:50;;;;;;;9.50;5.63;;;19.50;99.90;;;;;;4883664;29;20040;-74
2023/06/14 00:04:41;;;;;;;9.82;5.82;;;19.50;99.90;;;;;;4856028;29;20064;-79
2023/06/14 00:07:26;;;;;;;9.95;5.97;;;19.30;99.90;;;;;;4901588;29;20068;-79
2023/06/14 00:10:07;;;;;;;11.68;5.95;;;19.20;99.90;;;;;;4870537;29;20057;-79
2023/06/14 00:12:35;;;;;;;10.15;6.00;;;19.20;99.90;;;;;;4885929;29;20446;-79
2023/06/14 00:15:11;;;;;;;9.43;6.07;;;19.30;99.90;;;;;;4882343;29;20052;-76
2023/06/14 00:17:44;;;;;;;9.23;6.05;;;19.10;99.90;;;;;;4865866;29;20049;-79
2023/06/14 00:20:12;;;;;;;9.43;5.75;;;19.10;99.90;;;;;;4894856;29;20511;-77
2023/06/14 00:22:39;;;;;;;12.90;5.60;;;19.20;99.90;;;;;;4896534;29;20064;-81
2023/06/14 00:25:25;;;;;;;8.68;5.95;;;19.30;99.90;;;;;;4920124;29;20044;-77
2023/06/14 00:28:09;;;;;;;12.02;5.85;;;19.30;99.90;;;;;;4883818;29;20073;-83
2023/06/14 00:30:51;;;;;;;;;;;;;;;;;;;;;
2023/06/14 00:33:46;;;;;;;9.98;5.90;;;19.10;99.90;;;;;;4900095;29;20063;-77
2023/06/14 00:36:29;;;;;;;9.27;6.28;;;18.90;99.90;;;;;;4904618;29;20476;-77
2023/06/14 00:39:33;;;;;;;9.00;5.63;;;19.00;99.90;;;;;;4851833;29;20072;-79
2023/06/14 00:42:02;;;;;;;9.27;6.03;;;18.90;99.90;;;;;;4924667;29;20109;-81
2023/06/14 00:44:29;;;;;;;8.70;5.88;;;19.00;99.90;;;;;;4916402;29;20044;-80
2023/06/14 00:46:57;;;;;;;8.93;5.95;;;19.00;99.90;;;;;;4891002;29;20052;-82
2023/06/14 00:49:30;;;;;;;9.57;5.78;;;19.00;99.90;;;;;;4917477;29;20048;-82
2023/06/14 00:52:34;;;;;;;11.82;6.30;;;19.00;99.90;;;;;;4881213;29;20045;-76
2023/06/14 00:55:50;;;;;;;9.98;6.13;;;19.10;99.90;;;;;;4901088;29;20504;-82
2023/06/14 00:58:17;;;;;;;;;;;19.10;99.90;;;;;;4920755;29;20040;-82
2023/06/14 01:00:45;;;;;;;9.23;5.75;;;19.10;99.90;;;;;;4916806;29;20316;-79
2023/06/14 01:03:34;;;;;;;7.78;5.80;;;19.30;99.90;;;;;;4920173;29;20064;-78
2023/06/14 01:06:35;;;;;;;10.20;6.25;;;19.30;99.90;;;;;;4889981;29;20536;-79
2023/06/14 01:22:14;;;;;;;10.00;5.60;;;19.20;99.90;;;;;;5156100;27;20114;-81
2023/06/14 01:24:55;;;;;;;8.60;5.60;;;19.20;99.90;;;;;;5476382;22;20954;-81
2023/06/14 01:27:29;;;;;;;10.50;6.25;;;19.20;99.90;;;;;;5030600;28;20395;-79
2023/06/14 01:30:05;;;;;;;8.25;6.03;;;19.10;99.90;;;;;;5031525;28;20030;-80
2023/06/14 01:32:41;;;;;;;10.75;6.55;;;19.20;99.90;;;;;;5009233;28;20062;-80
2023/06/14 01:35:09;;;;;;;8.88;6.05;;;19.10;99.90;;;;;;5031078;28;20033;-78
2023/06/14 01:37:37;;;;;;;14.55;6.72;;;18.90;99.90;;;;;;5031626;28;20071;-79
2023/06/14 01:40:06;;;;;;;11.93;7.13;;;18.70;99.90;;;;;;5018457;28;20053;-77
2023/06/14 01:42:35;;;;;;;9.60;6.75;;;18.80;99.90;;;;;;5015530;28;20476;-82
2023/06/14 01:45:07;;;;;;;12.20;6.47;;;18.80;99.90;;;;;;5026149;28;20091;-81
2023/06/14 01:47:35;;;;;;;11.20;6.90;;;18.80;99.90;;;;;;5021142;28;20033;-82
2023/06/14 01:50:08;;;;;;;12.27;6.85;;;18.70;99.90;;;;;;5032025;28;20046;-79
2023/06/14 01:52:38;;;;;;;11.13;6.70;;;18.60;99.90;;;;;;5034436;28;20042;-83
2023/06/14 01:55:17;;;;;;;11.90;6.65;;;18.50;99.90;;;;;;5031861;28;20123;-75
2023/06/14 01:57:54;;;;;;;8.48;6.22;;;18.60;99.90;;;;;;5014092;28;20045;-78
2023/06/14 02:00:22;;;;;;;10.98;6.47;;;18.70;99.90;;;;;;5031743;28;20047;-76
2023/06/14 02:02:49;;;;;;;11.77;6.15;;;18.60;99.90;;;;;;5013253;28;20800;-84
2023/06/14 02:05:32;;;;;;;;;;;;;;;;;;;;;
2023/06/14 02:08:31;;;;;;;12.15;6.05;;;18.40;99.90;;;;;;4956243;28;20070;-84
2023/06/14 02:11:30;;;;;;;12.25;6.50;;;18.60;99.90;;;;;;4937944;29;20043;-79
2023/06/14 02:14:17;;;;;;;11.88;6.28;;;18.70;99.90;;;;;;4954029;28;20051;-74
2023/06/14 02:16:48;;;;;;;10.25;6.35;;;18.90;99.90;;;;;;4955314;28;20058;-83
2023/06/14 02:19:28;;;;;;;9.07;6.03;;;18.90;99.90;;;;;;4953109;28;20059;-79
2023/06/14 02:22:01;;;;;;;11.85;7.65;;;19.00;99.90;;;;;;4960266;28;20047;-84
2023/06/14 02:24:29;;;;;;;8.85;6.07;;;18.90;99.90;;;;;;4935785;29;20054;-79
2023/06/14 02:27:05;;;;;;;10.95;7.18;;;19.00;99.90;;;;;;4926603;29;20082;-79
2023/06/14 02:30:18;;;;;;;10.40;6.45;;;18.90;99.90;;;;;;4931868;29;20059;-75
2023/06/14 02:36:41;;;;;;;11.73;7.13;;;18.60;99.90;;;;;;5872907;23;20058;-80
2023/06/14 02:39:10;;;;;;;10.75;6.45;;;18.80;99.90;;;;;;4969048;28;20081;-82
2023/06/14 02:41:38;;;;;;;12.23;6.07;;;18.90;99.90;;;;;;4971118;28;20102;-83
2023/06/14 02:44:06;;;;;;;11.00;6.32;;;18.90;99.90;;;;;;4978242;28;20105;-79
2023/06/14 02:46:43;;;;;;;10.73;6.75;;;18.80;99.90;;;;;;4978899;28;20045;-79
2023/06/14 02:49:33;;;;;;;10.48;6.43;;;18.80;99.90;;;;;;4952053;28;20038;-83
2023/06/14 02:52:01;;;;;;;12.73;6.80;;;18.80;99.90;;;;;;4988286;28;20421;-83
2023/06/14 02:54:28;;;;;;;10.10;6.57;;;18.70;99.90;;;;;;4961957;28;20058;-79
2023/06/14 02:57:01;;;;;;;11.57;7.13;;;18.70;99.90;;;;;;4962056;28;20038;-82
2023/06/14 02:59:50;;;;;;;11.70;6.47;;;18.70;99.90;;;;;;4936285;28;20054;-77
2023/06/14 03:03:04;;;;;;;10.20;6.40;;;18.60;99.90;;;;;;4977741;28;20047;-83
2023/06/14 03:06:01;;;;;;;12.50;6.55;;;18.60;99.90;;;;;;4981747;28;20038;-86
2023/06/14 03:08:48;;;;;;;10.43;6.10;;;18.60;99.90;;;;;;4966995;28;20058;-80
2023/06/14 03:11:16;;;;;;;12.07;6.13;;;18.50;99.90;;;;;;4992947;28;20054;-82
2023/06/14 03:13:50;;;;;;;12.75;7.85;;;18.40;99.90;;;;;;4989534;28;20663;-82
2023/06/14 03:17:00;;;;;;;12.27;6.30;;;18.40;99.90;;;;;;4999453;28;20046;-76
2023/06/14 03:19:41;;;;;;;9.05;6.22;;;18.40;99.90;;;;;;4975333;28;20072;-84
2023/06/14 03:23:04;;;;;;;11.73;5.93;;;18.30;99.90;;;;;;4931986;29;20057;-78
2023/06/14 03:29:04;;;;;;;11.63;6.03;;;18.30;99.90;;;;;;5083234;23;20161;-82
2023/06/14 03:31:32;;;;;;;9.55;6.22;;;18.30;99.90;;;;;;5002763;28;20093;-84
2023/06/14 03:34:02;;;;;;;8.73;5.63;;;18.40;99.90;;;;;;4988461;28;20138;-83
2023/06/14 03:36:29;;;;;;;10.23;5.75;;;18.50;99.90;;;;;;5013761;28;20108;-82
2023/06/14 03:38:57;;;;;;;10.40;6.10;;;18.40;99.90;;;;;;5014053;28;20030;-84
2023/06/14 03:41:27;;;;;;;9.73;5.72;;;18.30;99.90;;;;;;5009475;28;20034;-83
2023/06/14 03:43:54;;;;;;;12.05;5.53;;;18.30;99.90;;;;;;4977869;28;20035;-80
2023/06/14 03:46:21;;;;;;;9.52;6.50;;;18.40;99.90;;;;;;5012454;28;20070;-84
2023/06/14 03:49:00;;;;;;;9.70;6.00;;;18.20;99.90;;;;;;5000854;28;20038;-80
2023/06/14 03:51:29;;;;;;;9.50;6.25;;;18.30;99.90;;;;;;5000039;28;20050;-81
2023/06/14 03:56:52;;;;;;;12.55;6.13;;;18.40;99.90;;;;;;5223695;23;20113;-82
2023/06/14 03:59:19;;;;;;;13.38;6.53;;;18.50;99.90;;;;;;4995686;28;20042;-81
2023/06/14 04:01:47;;;;;;;8.43;5.80;;;18.50;99.90;;;;;;4990076;28;20043;-79
2023/06/14 04:04:28;;;;;;;11.30;5.85;;;18.50;99.90;;;;;;4998469;28;20468;-79
2023/06/14 04:07:11;;;;;;;11.50;6.07;;;18.50;99.90;;;;;;4994020;28;20053;-83
2023/06/14 04:09:40;;;;;;;11.55;5.80;;;18.50;99.90;;;;;;4999024;28;20058;-81
2023/06/14 04:12:16;;;;;;;10.32;5.82;;;18.60;99.90;;;;;;4999896;28;20038;-82
2023/06/14 04:14:44;;;;;;;14.27;5.95;;;18.60;99.90;;;;;;5001347;28;20070;-81
2023/06/14 04:20:11;;;;;;;10.88;5.32;;;18.60;99.90;;;;;;4874851;26;20063;-78
2023/06/14 04:26:54;;;;;;;9.75;6.05;;;18.70;99.90;;;;;;4911210;29;20387;-81
2023/06/14 04:29:59;;;;;;;12.50;6.03;;;18.70;99.90;;;;;;5160492;23;20081;31
2023/06/14 04:32:26;;;;;;;12.00;5.93;;;18.60;99.90;;;;;;4932360;29;19919;-83
2023/06/14 04:34:54;;;;;;;8.30;5.40;;;18.80;99.90;;;;;;5019782;23;20059;-83
2023/06/14 04:37:59;;;;;;;12.98;6.88;;;18.80;99.90;;;;;;4982502;28;20035;-77
2023/06/14 04:40:42;;;;;;;8.95;5.80;;;18.70;99.90;;;;;;4963739;28;20059;-78
2023/06/14 04:43:19;;;;;;;11.23;5.65;;;18.80;99.90;;;;;;4979591;28;20417;-74
2023/06/14 04:46:45;;;;;;;9.40;5.78;;;19.00;99.90;;;;;;4961634;28;20057;-77
2023/06/14 04:49:17;;;;;;;10.95;6.15;;;19.10;99.90;;;;;;4962187;28;20039;-81
2023/06/14 04:52:30;;;;;;;;;;;;;;;;;;;;;
2023/06/14 04:56:46;;;;;;;9.65;5.57;;;19.10;99.90;;;;;;4879216;29;20080;-77
2023/06/14 05:00:04;;;;;;;31.63;19.15;;;19.20;99.90;;;;;;4859645;29;20056;-83
2023/06/14 05:02:31;;;;;;;41.22;23.63;;;19.20;99.90;;;;;;5020408;23;20044;-79
2023/06/14 05:05:08;;;;;;;59.58;37.90;;;19.10;99.90;;;;;;5015277;28;20054;-78
2023/06/14 05:23:48;;;;;;;;;;;;;;;;;;;;;
2023/06/14 05:27:01;;;;;;;13.00;8.40;;;19.30;99.90;;;;;;4952200;29;20590;-79
2023/06/14 05:30:34;;;;;;;10.77;7.78;;;19.40;99.90;;;;;;4902914;29;20086;-84
2023/06/14 05:33:45;;;;;;;12.20;6.70;;;19.50;99.90;;;;;;4924986;29;20115;-81
2023/06/14 05:54:30;;;;;;;19.52;12.23;;;20.00;99.90;;;;;;4992854;28;20098;-90
2023/06/14 05:57:22;;;;;;;11.50;7.32;;;19.90;99.90;;;;;;5008188;28;20070;-81
2023/06/14 06:06:28;;;;;;;14.38;7.65;;;20.00;99.90;;;;;;5899827;23;20059;-88
2023/06/14 06:10:01;;;;;;;13.25;7.38;;;20.20;99.90;;;;;;4985568;28;20057;-85
2023/06/14 06:12:51;;;;;;;9.23;5.40;;;20.40;99.90;;;;;;4999653;28;20022;-84
2023/06/14 06:15:36;;;;;;;11.60;7.35;;;20.40;99.90;;;;;;4983684;28;20465;-85
2023/06/14 06:22:45;;;;;;;11.07;6.28;;;20.60;99.90;;;;;;4968798;28;20056;-85
2023/06/14 06:29:15;;;;;;;10.68;5.18;;;20.70;99.90;;;;;;4949257;29;20030;-86
2023/06/14 06:31:56;;;;;;;11.52;6.32;;;20.80;99.90;;;;;;4921903;29;20067;-84
2023/06/14 06:34:44;;;;;;;10.52;6.07;;;20.90;99.90;;;;;;5244753;23;20050;-83
2023/06/14 06:37:35;;;;;;;9.70;5.80;;;20.80;99.90;;;;;;5026122;28;20100;-85
2023/06/14 06:40:19;;;;;;;9.68;5.03;;;21.00;99.90;;;;;;5016684;28;20313;-79
2023/06/14 06:43:03;;;;;;;12.98;6.93;;;21.10;99.90;;;;;;5012608;28;20038;-83
2023/06/14 06:46:45;;;;;;;12.77;5.82;;;21.10;99.90;;;;;;5009421;28;20042;-80
2023/06/14 06:49:27;;;;;;;9.65;5.47;;;21.10;99.90;;;;;;5029811;28;20072;-84
2023/06/14 06:52:11;;;;;;;8.00;4.95;;;21.10;99.90;;;;;;5014164;28;20053;-83
2023/06/14 06:54:49;;;;;;;8.90;5.70;;;21.20;99.90;;;;;;5027360;28;20046;-82
2023/06/14 07:04:35;;;;;;;9.63;5.53;;;21.10;99.90;;;;;;5426509;23;20086;-80
2023/06/14 07:32:08;;;;;;;10.27;5.72;;;21.40;99.90;;;;;;4931872;29;20051;-85
2023/06/14 07:35:33;;;;;;;9.63;5.10;;;21.40;99.90;;;;;;4913323;29;20060;-80
2023/06/14 07:54:17;;;;;;;14.23;5.55;;;22.00;99.90;;;;;;4969489;29;20204;-83
2023/06/14 08:00:15;;;;;;;9.70;5.25;;;22.10;99.90;;;;;;5197114;23;20118;-86
2023/06/14 08:02:59;;;;;;;12.75;4.93;;;22.20;99.90;;;;;;4925140;29;20111;-83
2023/06/14 08:06:43;;;;;;;9.77;5.07;;;22.20;99.90;;;;;;4940237;29;20053;-82
2023/06/14 08:13:13;;;;;;;8.27;5.10;;;22.40;99.90;;;;;;4938835;29;20050;-84
2023/06/14 08:16:05;;;;;;;8.75;4.72;;;22.30;99.90;;;;;;4937702;29;20137;-81
2023/06/14 08:24:34;;;;;;;8.65;5.07;;;22.50;99.90;;;;;;3644907;23;20039;-80
2023/06/14 08:27:02;;;;;;;7.80;5.03;;;22.40;99.90;;;;;;4966750;28;20043;-82
2023/06/14 08:39:14;;;;;;;9.00;5.20;;;22.50;99.90;;;;;;5600353;23;20493;-83
2023/06/14 08:46:16;;;;;;;;;;;22.90;99.90;;;;;;4984785;28;20045;-83
2023/06/14 08:48:44;;;;;;;6.53;4.18;;;22.90;99.90;;;;;;5023741;23;19917;-85
2023/06/14 08:51:33;;;;;;;7.10;4.28;;;22.90;99.90;;;;;;4965971;28;20022;-85
2023/06/14 09:04:35;;;;;;;7.97;4.40;;;23.20;99.90;;;;;;1214224;26;20043;-85
2023/06/14 09:07:18;;;;;;;6.50;3.88;;;23.30;99.90;;;;;;4936612;29;20058;-82
2023/06/14 09:11:20;;;;;;;6.47;3.80;;;23.40;99.90;;;;;;4914836;28;20078;-83
2023/06/14 09:14:30;;;;;;;10.17;4.50;;;23.50;99.90;;;;;;5485812;23;20807;31
2023/06/14 09:17:42;;;;;;;6.30;3.67;;;23.60;99.90;;;;;;5417709;23;20053;-82
2023/06/14 09:24:51;;;;;;;8.32;3.38;;;23.60;99.90;;;;;;4950075;29;20036;-81
2023/06/14 09:49:10;;;;;;;6.57;3.00;;;25.00;99.90;;;;;;5060853;23;20051;-82
2023/06/14 10:02:26;;;;;;;5.68;3.28;;;24.20;99.90;;;;;;1645609;23;20026;31
2023/06/14 10:27:49;;;;;;;7.97;4.15;;;25.00;99.90;;;;;;4523044;23;20046;-83
2023/06/14 10:46:49;;;;;;;5.55;3.42;;;25.70;99.90;;;;;;4975497;28;20095;-84
2023/06/14 11:36:33;;;;;;;8.57;5.07;;;26.50;98.00;;;;;;5311007;23;20262;-83
2023/06/14 11:39:15;;;;;;;7.78;4.63;;;26.40;97.70;;;;;;5027783;23;20065;-83
2023/06/14 11:42:15;;;;;;;9.52;5.75;;;27.00;97.30;;;;;;4973321;28;20055;-82
2023/06/14 11:50:09;;;;;;;6.97;4.72;;;27.40;95.50;;;;;;4941817;28;20075;-83
2023/06/14 11:53:42;;;;;;;9.85;5.88;;;27.60;95.30;;;;;;4956947;28;20090;-84
2023/06/14 11:57:08;;;;;;;9.85;5.00;;;27.70;95.30;;;;;;4966107;28;20118;-81
2023/06/14 12:11:08;;;;;;;7.18;4.70;;;25.60;99.70;;;;;;4989480;28;20053;-84
2023/06/14 12:14:33;;;;;;;8.27;4.82;;;25.40;99.80;;;;;;4959758;28;20131;-85
2023/06/14 12:20:49;;;;;;;6.82;4.72;;;25.50;99.60;;;;;;5680024;23;20075;-85
2023/06/14 12:24:12;;;;;;;10.48;6.07;;;25.30;99.90;;;;;;4912653;29;20071;-86
2023/06/14 12:27:49;;;;;;;11.18;5.43;;;25.20;99.60;;;;;;4921411;29;20091;-87
2023/06/14 13:07:48;;;;;;;10.50;6.55;;;25.60;97.40;;;;;;4959792;28;20040;-85
2023/06/14 13:20:26;;;;;;;9.57;6.45;;;25.20;98.00;;;;;;5185368;23;20186;-83
2023/06/14 14:54:23;;;;;;;13.40;7.93;;;22.30;99.90;;;;;;4567745;23;19910;-83
2023/06/14 14:57:07;;;;;;;11.48;7.18;;;22.20;99.90;;;;;;4943537;29;20473;-86
2023/06/14 15:05:32;;;;;;;12.18;7.65;;;22.10;99.90;;;;;;4960977;29;20043;-82
2023/06/14 15:13:35;;;;;;;40.67;27.48;;;23.00;99.90;;;;;;4841894;29;20073;-78
2023/06/14 15:16:38;;;;;;;15.88;11.40;;;23.30;99.90;;;;;;4811491;29;20062;-80
2023/06/14 15:19:39;;;;;;;13.68;8.32;;;23.30;99.90;;;;;;4807100;29;20161;-77
2023/06/14 15:22:06;;;;;;;13.45;8.75;;;23.40;99.90;;;;;;4825210;29;20077;-76
2023/06/14 15:24:34;;;;;;;15.77;9.98;;;23.40;99.90;;;;;;4815463;29;20496;-77
2023/06/14 15:27:12;;;;;;;72.30;39.25;;;23.30;99.90;;;;;;4816459;29;20452;-79
2023/06/14 15:33:25;;;;;;;13.48;9.55;;;22.70;99.90;;;;;;4804464;29;20052;-78
2023/06/14 15:40:19;;;;;;;32.30;23.33;;;22.60;99.90;;;;;;4795597;30;20160;-78
2023/06/14 15:42:47;;;;;;;11.95;9.10;;;22.80;99.90;;;;;;4800635;29;20090;-77
2023/06/14 15:46:01;;;;;;;11.65;7.72;;;22.90;99.90;;;;;;4770876;30;20054;-78
2023/06/14 15:49:20;;;;;;;;;;;;;;;;;;;;;
2023/06/14 15:52:33;;;;;;;11.52;7.68;;;21.90;99.90;;;;;;4795169;29;20126;-80
2023/06/14 15:55:09;;;;;;;10.20;7.55;;;21.70;99.90;;;;;;4796877;29;20085;-76
2023/06/14 15:59:07;;;;;;;;;;;;;;;;;;;;;
2023/06/14 16:02:49;;;;;;;12.45;8.18;;;21.80;99.90;;;;;;4794702;29;20055;-76
2023/06/14 16:06:08;;;;;;;11.73;7.15;;;21.90;99.90;;;;;;4735416;30;20043;-76
2023/06/14 16:09:28;;;;;;;10.57;7.45;;;21.90;99.90;;;;;;4765337;30;20080;-77
2023/06/14 16:12:11;;;;;;;11.35;7.32;;;21.80;99.90;;;;;;4767269;23;20075;-78
2023/06/14 16:15:17;;;;;;;10.77;7.18;;;22.30;99.90;;;;;;4903816;29;20063;-77
2023/06/14 16:18:23;;;;;;;11.15;7.22;;;22.00;99.90;;;;;;4883062;29;20285;-77
2023/06/14 16:21:26;;;;;;;12.65;7.40;;;22.00;99.90;;;;;;4867659;29;20054;-76
2023/06/14 16:23:58;;;;;;;12.50;7.35;;;22.20;99.90;;;;;;4870152;29;20483;-75
2023/06/14 16:27:08;;;;;;;15.15;7.70;;;22.10;99.90;;;;;;4877106;29;20052;-75
2023/06/14 16:34:15;;;;;;;;;;;;;;;;;;;;;
2023/06/14 16:37:49;;;;;;;35.75;26.48;;;22.00;99.90;;;;;;4886080;29;20039;-80
2023/06/14 16:40:52;;;;;;;14.35;10.75;;;22.20;99.90;;;;;;4887761;29;20056;-80
2023/06/14 16:44:25;;;;;;;;;;;;;;;;;;;;;
2023/06/14 16:51:15;;;;;;;29.63;18.90;;;22.20;99.90;;;;;;5283996;23;20137;-79
2023/06/14 16:57:16;;;;;;;13.77;9.65;;;22.30;99.90;;;;;;4892827;29;20048;-79
2023/06/14 16:59:47;;;;;;;15.20;8.88;;;22.40;99.90;;;;;;4906740;29;20569;-77
2023/06/14 17:05:22;;;;;;;13.32;9.05;;;22.10;99.90;;;;;;4967832;23;20051;-78
2023/06/14 17:08:16;;;;;;;16.27;9.48;;;22.10;99.90;;;;;;4940956;29;20059;-78
2023/06/14 17:10:56;;;;;;;12.70;8.43;;;22.10;99.90;;;;;;4948818;29;20071;-77
2023/06/14 17:13:45;;;;;;;15.32;8.90;;;22.10;99.90;;;;;;4945760;29;20048;-74
2023/06/14 17:16:23;;;;;;;12.30;8.45;;;22.10;99.90;;;;;;4905084;29;20422;-83
2023/06/14 17:19:04;;;;;;;11.82;8.02;;;22.10;99.90;;;;;;4917605;29;20040;-78
2023/06/14 17:25:08;;;;;;;16.48;7.72;;;22.20;99.90;;;;;;4917461;29;20131;-77
2023/06/14 17:28:03;;;;;;;14.07;9.05;;;22.20;99.90;;;;;;4896694;29;20115;-79
2023/06/14 17:30:59;;;;;;;14.25;8.73;;;22.20;99.90;;;;;;4905147;29;20135;-75
2023/06/14 17:34:08;;;;;;;14.00;9.43;;;22.10;99.90;;;;;;4927818;29;20071;-74
2023/06/14 17:39:44;;;;;;;13.60;8.98;;;22.00;99.90;;;;;;4922857;29;20048;-80
2023/06/14 17:42:12;;;;;;;17.58;8.98;;;22.00;99.90;;;;;;4929469;29;20071;-79
2023/06/14 17:44:45;;;;;;;12.35;8.25;;;22.10;99.90;;;;;;4907839;29;20054;-82
2023/06/14 17:47:58;;;;;;;13.05;8.32;;;22.10;99.90;;;;;;4938233;29;20055;-77
2023/06/14 17:50:38;;;;;;;14.13;8.23;;;22.00;99.90;;;;;;4901613;29;20092;-75
2023/06/14 17:53:44;;;;;;;12.32;8.38;;;21.80;99.90;;;;;;4942836;29;20035;-80
2023/06/14 17:59:54;;;;;;;22.92;16.65;;;21.90;99.90;;;;;;4904031;29;20055;-77
2023/06/14 18:02:36;;;;;;;17.88;11.45;;;21.90;99.90;;;;;;4946095;29;20035;-78
2023/06/14 18:05:32;;;;;;;54.05;33.78;;;21.80;99.90;;;;;;4927478;29;20103;-77
2023/06/14 18:08:05;;;;;;;117.03;76.65;;;21.90;99.90;;;;;;4942284;29;20119;-76
2023/06/14 18:10:37;;;;;;;33.40;24.23;;;21.90;99.90;;;;;;4931252;29;20047;-76
2023/06/14 18:13:05;;;;;;;22.02;14.02;;;21.80;99.90;;;;;;4944043;29;20066;-75
2023/06/14 18:16:13;;;;;;;16.08;11.45;;;21.90;99.90;;;;;;4919399;29;20054;-75
2023/06/14 18:19:16;;;;;;;14.38;9.93;;;21.90;99.90;;;;;;4915624;29;20050;-78
2023/06/14 18:21:49;;;;;;;14.65;9.77;;;21.80;99.90;;;;;;4919106;29;20047;-74
2023/06/14 18:24:44;;;;;;;14.10;9.73;;;21.80;99.90;;;;;;4949357;29;20047;-78
2023/06/14 18:27:22;;;;;;;14.45;9.63;;;21.70;99.90;;;;;;4934480;23;20055;-75
2023/06/14 18:30:26;;;;;;;15.82;10.02;;;21.70;99.90;;;;;;4919269;29;20055;-76
2023/06/14 18:33:19;;;;;;;14.52;8.50;;;21.60;99.90;;;;;;4903284;29;20050;-76
2023/06/14 18:36:01;;;;;;;19.08;10.38;;;21.60;99.90;;;;;;4898776;29;20454;-75
2023/06/14 18:38:46;;;;;;;16.75;10.23;;;21.50;99.90;;;;;;4902884;29;20044;-76
2023/06/14 18:41:39;;;;;;;17.02;9.15;;;21.60;99.90;;;;;;4918704;29;20052;-75
2023/06/14 18:44:13;;;;;;;17.88;9.38;;;21.70;99.90;;;;;;4903521;29;20058;-78
2023/06/14 18:46:43;;;;;;;20.55;9.60;;;21.60;99.90;;;;;;4888315;29;20502;-77
2023/06/14 18:49:12;;;;;;;19.17;9.37;;;21.60;99.90;;;;;;4939396;29;20043;-75
2023/06/14 18:51:40;;;;;;;14.48;8.88;;;21.50;99.90;;;;;;4946640;29;20511;-75
2023/06/14 18:54:07;;;;;;;15.48;9.50;;;21.50;99.90;;;;;;4928223;29;20056;-77
2023/06/14 18:56:34;;;;;;;16.60;10.13;;;21.30;99.90;;;;;;4939779;29;20146;-75
2023/06/14 18:59:03;;;;;;;15.57;9.52;;;21.40;99.90;;;;;;4906551;29;20477;-76
2023/06/14 19:01:33;;;;;;;15.35;8.02;;;21.40;99.90;;;;;;4909265;29;20048;-76
2023/06/14 19:04:01;;;;;;;13.43;7.90;;;21.20;99.90;;;;;;4921023;29;20040;-76
2023/06/14 19:06:29;;;;;;;14.50;8.23;;;21.10;99.90;;;;;;4940022;29;20039;-76
2023/06/14 19:08:56;;;;;;;11.32;7.70;;;21.00;99.90;;;;;;4941795;29;20063;-74
2023/06/14 19:11:24;;;;;;;14.18;7.30;;;21.00;99.90;;;;;;4903386;29;20486;-74
2023/06/14 19:13:52;;;;;;;11.63;7.78;;;21.00;99.90;;;;;;4930818;29;20096;-76
2023/06/14 19:16:21;;;;;;;10.38;7.20;;;21.00;99.90;;;;;;4921823;29;20064;-77
2023/06/14 19:19:25;;;;;;;11.40;7.20;;;20.80;99.90;;;;;;4909770;29;20130;-75
2023/06/14 19:22:35;;;;;;;14.95;7.55;;;20.80;99.90;;;;;;4884513;29;20100;-75
2023/06/14 19:26:29;;;;;;;10.43;6.63;;;20.80;99.90;;;;;;4895436;29;20044;-75
2023/06/14 19:29:50;;;;;;;8.55;6.28;;;20.80;99.90;;;;;;4896686;29;20083;-76
2023/06/14 19:32:49;;;;;;;8.25;5.70;;;20.80;99.90;;;;;;4906332;29;20054;-76
2023/06/14 19:35:22;;;;;;;10.10;6.68;;;20.70;99.90;;;;;;4907292;29;20048;-76
2023/06/14 19:37:50;;;;;;;13.27;6.70;;;20.60;99.90;;;;;;4922293;29;20443;-76
2023/06/14 19:40:20;;;;;;;8.30;5.72;;;20.50;99.90;;;;;;4903248;29;20072;-76
2023/06/14 19:42:54;;;;;;;11.57;6.60;;;20.50;99.90;;;;;;4889066;29;20054;-78
2023/06/14 19:45:21;;;;;;;9.10;6.05;;;20.50;99.90;;;;;;4918546;29;20401;-76
2023/06/14 19:47:49;;;;;;;10.93;6.05;;;20.50;99.90;;;;;;4908316;29;20103;-77
2023/06/14 19:50:30;;;;;;;8.70;5.93;;;20.50;99.90;;;;;;4920645;29;20073;-77
2023/06/14 19:52:59;;;;;;;9.63;5.22;;;20.40;99.90;;;;;;4902734;29;20051;-78
2023/06/14 19:58:39;;;;;;;11.00;6.13;;;20.50;99.90;;;;;;5125960;23;20060;-79
2023/06/14 20:01:15;;;;;;;8.73;6.00;;;20.50;99.90;;;;;;4928387;29;20444;-78
2023/06/14 20:04:43;;;;;;;8.02;5.60;;;20.40;99.90;;;;;;4920234;29;20036;-78
2023/06/14 20:07:57;;;;;;;10.40;6.18;;;20.40;99.90;;;;;;4940327;29;20378;-78
2023/06/14 20:13:27;;;;;;;14.57;6.03;;;20.40;99.90;;;;;;4927265;29;20051;-77
2023/06/14 20:22:57;;;;;;;9.88;6.10;;;20.40;99.90;;;;;;4950725;29;20435;-78
2023/06/14 20:26:12;;;;;;;9.82;5.97;;;20.30;99.90;;;;;;4898824;29;20497;-77
2023/06/14 20:39:45;;;;;;;10.25;5.88;;;20.10;99.90;;;;;;4944825;29;20421;-78
2023/06/14 20:51:52;;;;;;;8.07;5.90;;;20.10;99.90;;;;;;4917253;29;20142;-76
2023/06/14 20:54:26;;;;;;;10.27;5.78;;;20.10;99.90;;;;;;4937004;29;20032;-79
2023/06/14 21:02:22;;;;;;;9.18;6.05;;;19.90;99.90;;;;;;4899710;29;20123;-78
2023/06/14 21:06:05;;;;;;;14.15;5.95;;;19.90;99.90;;;;;;4778098;29;20047;-78
2023/06/14 21:10:34;;;;;;;;;;;;;;;;;;;;;
2023/06/14 21:14:14;;;;;;;16.92;10.63;;;20.00;99.90;;;;;;5277833;23;20063;-78
2023/06/14 21:17:52;;;;;;;11.63;7.97;;;20.00;99.90;;;;;;4908814;29;20054;-78
2023/06/14 21:20:50;;;;;;;;;;;;;;;;;;;;;
2023/06/14 21:35:16;;;;;;;15.07;8.13;;;19.90;99.90;;;;;;4861714;29;20048;-81
2023/06/14 21:41:42;;;;;;;9.68;6.57;;;19.80;99.90;;;;;;4902490;29;20142;-81
2023/06/14 21:44:19;;;;;;;13.77;6.82;;;19.80;99.90;;;;;;4882499;29;20511;-79
2023/06/14 21:59:45;;;;;;;9.98;7.07;;;20.00;99.90;;;;;;4928873;29;20046;-78
2023/06/14 22:02:13;;;;;;;10.70;6.35;;;20.00;99.90;;;;;;5325334;23;20039;-82
2023/06/14 22:15:25;;;;;;;10.30;6.15;;;19.80;99.90;;;;;;4912948;29;20072;-78
2023/06/14 22:17:55;;;;;;;9.50;6.03;;;19.90;99.90;;;;;;4839620;29;20050;-78
2023/06/14 22:23:17;;;;;;;10.95;5.93;;;19.90;99.90;;;;;;4893027;29;20055;-80
2023/06/14 22:29:16;;;;;;;55.40;36.85;;;20.00;99.90;;;;;;5535984;23;20060;-79
2023/06/14 22:31:55;;;;;;;15.65;11.80;;;20.00;99.90;;;;;;4913514;29;20048;-77
2023/06/14 22:34:32;;;;;;;13.75;7.72;;;19.90;99.90;;;;;;4890776;29;20093;-78
2023/06/14 22:43:41;;;;;;;16.45;8.85;;;19.90;99.90;;;;;;4919173;29;20075;-77
2023/06/14 22:46:19;;;;;;;14.60;8.32;;;19.80;99.90;;;;;;4922658;29;20044;-79
2023/06/14 22:49:02;;;;;;;13.93;8.00;;;19.80;99.90;;;;;;4889916;29;20050;-79
2023/06/14 22:51:30;;;;;;;13.20;7.38;;;19.70;99.90;;;;;;4920120;29;20075;-76
2023/06/14 22:53:58;;;;;;;9.80;7.40;;;19.60;99.90;;;;;;4933058;29;20047;-76
2023/06/14 22:56:28;;;;;;;12.52;6.75;;;19.60;99.90;;;;;;4921176;29;20051;-77
2023/06/14 22:59:18;;;;;;;10.50;6.63;;;19.60;99.90;;;;;;4904351;29;20402;-78
2023/06/14 23:05:00;;;;;;;14.45;8.63;;;19.70;99.90;;;;;;4868210;26;20139;-76
2023/06/14 23:11:33;;;;;;;14.55;7.88;;;19.80;99.90;;;;;;4872830;29;20054;-76
2023/06/14 23:14:00;;;;;;;11.13;7.43;;;19.80;99.90;;;;;;4919297;29;20055;-76
2023/06/14 23:16:35;;;;;;;11.98;6.82;;;19.70;99.90;;;;;;4931638;29;20043;-75
2023/06/14 23:21:53;;;;;;;12.57;8.13;;;19.70;99.90;;;;;;5086383;23;20044;-76
2023/06/14 23:24:21;;;;;;;11.82;6.63;;;19.70;99.90;;;;;;4932184;29;20043;-76
2023/06/14 23:27:00;;;;;;;11.98;6.85;;;19.70;99.90;;;;;;4937431;29;20118;-76
2023/06/14 23:29:53;;;;;;;12.68;6.78;;;19.70;99.90;;;;;;4885648;29;20040;-75
2023/06/14 23:32:47;;;;;;;14.48;6.38;;;19.70;99.90;;;;;;4849191;29;20081;-77
2023/06/14 23:35:18;;;;;;;12.50;7.15;;;19.60;99.90;;;;;;4896646;29;20057;-77
2023/06/14 23:42:16;;;;;;;8.50;5.95;;;19.50;99.90;;;;;;4913661;29;20044;-76
2023/06/14 23:45:24;;;;;;;10.20;5.95;;;19.50;99.90;;;;;;4978295;23;20054;-74
2023/06/14 23:47:52;;;;;;;13.35;6.13;;;19.20;99.90;;;;;;4939639;29;20055;-79
2023/06/14 23:50:20;;;;;;;10.15;5.68;;;19.30;99.90;;;;;;4937937;29;20082;-79
2023/06/14 23:56:47;;;;;;;12.15;6.15;;;19.20;99.90;;;;;;4977818;23;20148;-76
